Westgard — PDBQ — position and weather

sailwx.info

Track history (hours):
 
Tides and Currents Weather Stations Pressure Air Temp Water Temp Dewpoint Dewpoint Depression Visibility Wind Speed Wind Dir Waves Ship Positions

Westgard

Last reported at 2014-Sep-17 05:11 UTC. Time now 2014-Sep-18 01:45 UTC.
Position N 60°32' E 027°10'.

Length 89 m; draft 5.4 m.

Type: Ship. MMSI: 246457000.

Date/timePositionNaut miles runAvg speedWind from/ knotsBaromVisibWave heightAir tempDewpointWater temp
2014-Sep-17 05:11N 60°32' E 027°10'4 6.8
2014-Sep-17 04:33N 60°28' E 027°08'9 8.9
2014-Sep-17 03:33N 60°22' E 026°56'1010.4
2014-Sep-17 02:33N 60°19' E 026°35'1211.1
2014-Sep-17 01:31N 60°10' E 026°20'4510.8
2014-Sep-16 21:22N 59°47' E 025°04'1011.4
2014-Sep-16 20:27N 59°44' E 024°44'1011.3
2014-Sep-16 19:33N 59°41' E 024°25'2311.1
2014-Sep-16 17:31N 59°33' E 023°43'19911.0
2014-Sep-15 23:29N 57°16' E 019°08'2511.0
2014-Sep-15 21:15N 56°57' E 018°39'810.9
2014-Sep-15 20:33N 56°51' E 018°30'1210.8
2014-Sep-15 19:25N 56°43' E 018°14'1110.9
2014-Sep-15 18:25N 56°36' E 017°58'1010.8
2014-Sep-15 17:31N 56°30' E 017°44'1010.6
2014-Sep-15 16:33N 56°23' E 017°30'1210.5
2014-Sep-15 15:21N 56°16' E 017°12'72 9.9
2014-Sep-15 08:03N 55°37' E 015°23'5 9.9
2014-Sep-15 07:32N 55°34' E 015°15'10 9.8
2014-Sep-15 06:33N 55°30' E 015°00'10 9.8
2014-Sep-15 05:34N 55°25' E 014°46'10 9.9
2014-Sep-15 04:33N 55°18' E 014°33'1010.1
2014-Sep-15 03:33N 55°10' E 014°22'1010.3
2014-Sep-15 02:33N 55°02' E 014°11'10 9.9
2014-Sep-15 01:33N 54°57' E 013°56'12 9.9
2014-Sep-15 00:21N 54°53' E 013°37'7 9.2
2014-Sep-14 23:33N 54°50' E 013°25'9 8.8
2014-Sep-14 22:33N 54°46' E 013°11'9 8.6
2014-Sep-14 21:33N 54°43' E 012°57'8 8.3
2014-Sep-14 20:33N 54°40' E 012°44'9 8.8
2014-Sep-14 19:33N 54°35' E 012°31'8 8.4
2014-Sep-14 18:33N 54°31' E 012°18'9 8.6
2014-Sep-14 17:29N 54°25' E 012°07'9 9.6
2014-Sep-14 16:33N 54°25' E 011°52'10 9.9
2014-Sep-14 15:33N 54°28' E 011°36'1010.0
2014-Sep-14 14:33N 54°32' E 011°20'68 7.4
2014-Sep-14 05:19N 54°11' E 009°28'6 7.7
2014-Sep-14 04:29N 54°07' E 009°20'8 8.3
2014-Sep-14 03:33N 53°59' E 009°17'3 3.4
2014-Sep-14 02:33N 53°57' E 009°13'1 1.4
2014-Sep-14 01:33N 53°55' E 009°12'26 6.6
2014-Sep-13 21:33N 53°59' E 008°28'10 9.5
2014-Sep-13 20:33N 53°59' E 008°11'1010.3
2014-Sep-13 19:33N 53°57' E 007°54'59 9.7
2014-Sep-13 13:32N 53°43' E 006°18'1010.7
2014-Sep-13 12:33N 53°40' E 006°01'1111.2
2014-Sep-13 11:33N 53°37' E 005°43'1111.5
2014-Sep-13 10:33N 53°33' E 005°25'1211.7
2014-Sep-13 09:33N 53°29' E 005°06'1211.8
2014-Sep-13 08:33N 53°24' E 004°48'1211.6
2014-Sep-13 07:33N 53°15' E 004°36'1312.6
2014-Sep-13 06:33N 53°04' E 004°25'1212.2
2014-Sep-13 05:33N 52°53' E 004°16'1211.9
2014-Sep-13 04:33N 52°44' E 004°05'1111.4
2014-Sep-13 03:33N 52°35' E 003°52'2210.2
2014-Sep-13 01:23N 52°16' E 003°33'17 9.4
2014-Sep-12 23:33N 52°00' E 003°23'9 8.8
2014-Sep-12 22:32N 51°52' E 003°20'8 8.6
2014-Sep-12 21:33N 51°44' E 003°15'1010.0
2014-Sep-12 20:33N 51°35' E 003°24'1111.3
2014-Sep-12 19:33N 51°26' E 003°34'1211.6
2014-Sep-12 18:33N 51°21' E 003°51'8 7.9
2014-Sep-12 17:33N 51°23' E 004°03'9 8.6
2014-Sep-12 16:33N 51°20' E 004°16'4 4.4
2014-Sep-12 15:33N 51°17' E 004°20'1 0.9
2014-Sep-12 14:33N 51°16' E 004°21'1 0.7
2014-Sep-12 13:33N 51°16' E 004°22'0 0.0
2014-Sep-12 12:33N 51°16' E 004°22'0 0.0
2014-Sep-12 11:33N 51°16' E 004°22'0 0.0
2014-Sep-12 10:33N 51°16' E 004°22'0 0.0
2014-Sep-12 09:33N 51°16' E 004°22'0 0.0
2014-Sep-12 08:33N 51°16' E 004°22'0 0.0
2014-Sep-12 07:33N 51°16' E 004°22'0 0.0
2014-Sep-12 06:33N 51°16' E 004°22'1 1.5
2014-Sep-12 05:33N 51°17' E 004°20'0 0.0
2014-Sep-12 04:33N 51°17' E 004°20'1 1.0
2014-Sep-12 03:34N 51°17' E 004°19'6 5.6
2014-Sep-12 02:34N 51°22' E 004°13'3 2.7
2014-Sep-12 01:33N 51°23' E 004°09'4 4.4
2014-Sep-12 00:34N 51°23' E 004°02'5 4.9
2014-Sep-11 23:33N 51°28' E 004°00'7 7.0
2014-Sep-11 22:33N 51°35' E 003°58'9 7.7
2014-Sep-11 21:24N 51°40' E 004°10'2 2.6
2014-Sep-11 20:33N 51°39' E 004°13'8 7.8
2014-Sep-11 19:33N 51°41' E 004°25'4 3.8
2014-Sep-11 18:33N 51°42' E 004°31'7 7.4
2014-Sep-11 17:33N 51°47' E 004°39'0 0.0
2014-Sep-11 16:28N 51°47' E 004°39'0 0.0
2014-Sep-11 15:31N 51°47' E 004°39'0 0.0
2014-Sep-11 14:31N 51°47' E 004°39'0 0.0
2014-Sep-11 13:31N 51°47' E 004°39'0 0.0
2014-Sep-11 12:31N 51°47' E 004°39'0 0.0
2014-Sep-11 11:31N 51°47' E 004°39'0 0.0
2014-Sep-11 10:31N 51°47' E 004°39'0 0.0
2014-Sep-11 09:28N 51°47' E 004°39'0 0.0
2014-Sep-11 08:31N 51°47' E 004°39'0 0.0
2014-Sep-11 07:31N 51°47' E 004°39'0 0.0
2014-Sep-11 06:31N 51°47' E 004°39'0 0.0
2014-Sep-11 05:31N 51°47' E 004°39'0 0.0
2014-Sep-11 04:34N 51°47' E 004°39'0 0.0
2014-Sep-11 03:33N 51°47' E 004°39'0 0.0
2014-Sep-11 02:30N 51°47' E 004°38'0 0.0
2014-Sep-11 01:33N 51°47' E 004°39'0 0.0
2014-Sep-11 00:33N 51°47' E 004°39'0 0.0
2014-Sep-10 23:33N 51°47' E 004°39'0 0.0
2014-Sep-10 22:33N 51°47' E 004°39'0 0.0
2014-Sep-10 21:30N 51°47' E 004°39'0 0.0
2014-Sep-10 20:30N 51°47' E 004°39'0 0.0
2014-Sep-10 19:33N 51°47' E 004°39'0 0.0
2014-Sep-10 18:33N 51°47' E 004°39'0 0.0
2014-Sep-10 17:24N 51°47' E 004°39'0 0.0
2014-Sep-10 16:30N 51°47' E 004°39'0 0.0
2014-Sep-10 15:27N 51°47' E 004°39'0 0.0
2014-Sep-10 14:30N 51°47' E 004°39'0 0.0
2014-Sep-10 13:30N 51°47' E 004°39'0 0.0
2014-Sep-10 12:33N 51°47' E 004°39'0 0.0
2014-Sep-10 11:33N 51°47' E 004°39'0 0.0
2014-Sep-10 10:33N 51°47' E 004°39'0 0.0
2014-Sep-10 09:30N 51°47' E 004°39'0 0.0
2014-Sep-10 08:33N 51°47' E 004°39'0 0.0
2014-Sep-10 07:33N 51°47' E 004°39'0 0.0
2014-Sep-10 06:33N 51°47' E 004°39'0 0.0
2014-Sep-10 05:33N 51°47' E 004°39'0 0.0
2014-Sep-10 04:33N 51°47' E 004°39'0 0.0
2014-Sep-10 03:33N 51°47' E 004°39'0 0.0
2014-Sep-10 02:33N 51°47' E 004°39'0 0.0
2014-Sep-10 01:33N 51°47' E 004°39'0 0.0
2014-Sep-10 00:33N 51°47' E 004°39'0 0.0
2014-Sep-09 23:33N 51°47' E 004°39'0 0.0
2014-Sep-09 22:33N 51°47' E 004°39'0 0.0
2014-Sep-09 21:33N 51°47' E 004°39'0 0.0
2014-Sep-09 20:29N 51°47' E 004°39'0 0.0
2014-Sep-09 19:32N 51°47' E 004°39'0 0.0
2014-Sep-09 18:29N 51°47' E 004°39'0 0.0
2014-Sep-09 17:26N 51°47' E 004°39'0 0.0
2014-Sep-09 16:32N 51°47' E 004°39'0 0.0
2014-Sep-09 15:32N 51°47' E 004°39'0 0.0
2014-Sep-09 14:33N 51°47' E 004°39'0 0.0
2014-Sep-09 13:33N 51°47' E 004°39'0 0.0
2014-Sep-09 12:33N 51°47' E 004°39'0 0.0
2014-Sep-09 11:33N 51°47' E 004°39'3 3.3
2014-Sep-09 10:33N 51°49' E 004°34'8 8.4
2014-Sep-09 09:33N 51°51' E 004°21'7 7.3
2014-Sep-09 08:33N 51°56' E 004°12'8 8.4
2014-Sep-09 07:33N 51°60' E 004°00'9 9.3
2014-Sep-09 06:33N 52°05' E 003°47'1211.7
2014-Sep-09 05:32N 52°16' E 003°47'8210.2
2014-Sep-08 21:31N 53°30' E 004°48'1010.5
2014-Sep-08 20:33N 53°33' E 005°04'10 9.7
2014-Sep-08 19:33N 53°37' E 005°19'9 8.9
2014-Sep-08 18:33N 53°39' E 005°33'9 8.9
2014-Sep-08 17:33N 53°42' E 005°48'5310.3
2014-Sep-08 12:25N 53°57' E 007°14'1010.5
2014-Sep-08 11:27N 53°59' E 007°31'910.1
2014-Sep-08 10:33N 54°01' E 007°46'10 9.8
2014-Sep-08 09:33N 54°01' E 008°02'10 9.4
2014-Sep-08 08:28N 53°60' E 008°20'7 8.0
2014-Sep-08 07:33N 53°58' E 008°32'9 9.3
2014-Sep-08 06:33N 53°52' E 008°44'1212.0
2014-Sep-08 05:33N 53°52' E 009°04'4 3.5
2014-Sep-08 04:32N 53°54' E 009°10'90 6.9
2014-Sep-07 15:24N 54°31' E 011°29'911.1
2014-Sep-07 14:33N 54°28' E 011°45'1212.2
2014-Sep-07 13:33N 54°27' E 012°06'10 9.9
2014-Sep-07 12:33N 54°35' E 012°15'1211.0
2014-Sep-07 11:29N 54°42' E 012°31'1011.0
2014-Sep-07 10:33N 54°48' E 012°46'1110.6
2014-Sep-07 09:33N 54°52' E 013°03'1110.9
2014-Sep-07 08:33N 54°55' E 013°21'1111.0
2014-Sep-07 07:33N 54°60' E 013°38'1111.2
2014-Sep-07 06:33N 55°04' E 013°56'1110.7
2014-Sep-07 05:33N 55°10' E 014°12'  
Track history (hours):
 
Tides and Currents Weather Stations Pressure Air Temp Water Temp Dewpoint Dewpoint Depression Visibility Wind Speed Wind Dir Waves Ship Positions

Westgard

Last reported at 2014-Sep-17 05:11 UTC. Time now 2014-Sep-18 01:45 UTC.
Position N 60°32' E 027°10'.

Length 89 m; draft 5.4 m.

Type: Ship. MMSI: 246457000.

Date/timePositionNaut miles runAvg speedWind from/ knotsBaromVisibWave heightAir tempDewpointWater temp
2014-Sep-17 05:11N 60°32' E 027°10'4 6.8
2014-Sep-17 04:33N 60°28' E 027°08'9 8.9
2014-Sep-17 03:33N 60°22' E 026°56'1010.4
2014-Sep-17 02:33N 60°19' E 026°35'1211.1
2014-Sep-17 01:31N 60°10' E 026°20'4510.8
2014-Sep-16 21:22N 59°47' E 025°04'1011.4
2014-Sep-16 20:27N 59°44' E 024°44'1011.3
2014-Sep-16 19:33N 59°41' E 024°25'2311.1
2014-Sep-16 17:31N 59°33' E 023°43'19911.0
2014-Sep-15 23:29N 57°16' E 019°08'2511.0
2014-Sep-15 21:15N 56°57' E 018°39'810.9
2014-Sep-15 20:33N 56°51' E 018°30'1210.8
2014-Sep-15 19:25N 56°43' E 018°14'1110.9
2014-Sep-15 18:25N 56°36' E 017°58'1010.8
2014-Sep-15 17:31N 56°30' E 017°44'1010.6
2014-Sep-15 16:33N 56°23' E 017°30'1210.5
2014-Sep-15 15:21N 56°16' E 017°12'72 9.9
2014-Sep-15 08:03N 55°37' E 015°23'5 9.9
2014-Sep-15 07:32N 55°34' E 015°15'10 9.8
2014-Sep-15 06:33N 55°30' E 015°00'10 9.8
2014-Sep-15 05:34N 55°25' E 014°46'10 9.9
2014-Sep-15 04:33N 55°18' E 014°33'1010.1
2014-Sep-15 03:33N 55°10' E 014°22'1010.3
2014-Sep-15 02:33N 55°02' E 014°11'10 9.9
2014-Sep-15 01:33N 54°57' E 013°56'12 9.9
2014-Sep-15 00:21N 54°53' E 013°37'7 9.2
2014-Sep-14 23:33N 54°50' E 013°25'9 8.8
2014-Sep-14 22:33N 54°46' E 013°11'9 8.6
2014-Sep-14 21:33N 54°43' E 012°57'8 8.3
2014-Sep-14 20:33N 54°40' E 012°44'9 8.8
2014-Sep-14 19:33N 54°35' E 012°31'8 8.4
2014-Sep-14 18:33N 54°31' E 012°18'9 8.6
2014-Sep-14 17:29N 54°25' E 012°07'9 9.6
2014-Sep-14 16:33N 54°25' E 011°52'10 9.9
2014-Sep-14 15:33N 54°28' E 011°36'1010.0
2014-Sep-14 14:33N 54°32' E 011°20'68 7.4
2014-Sep-14 05:19N 54°11' E 009°28'6 7.7
2014-Sep-14 04:29N 54°07' E 009°20'8 8.3
2014-Sep-14 03:33N 53°59' E 009°17'3 3.4
2014-Sep-14 02:33N 53°57' E 009°13'1 1.4
2014-Sep-14 01:33N 53°55' E 009°12'26 6.6
2014-Sep-13 21:33N 53°59' E 008°28'10 9.5
2014-Sep-13 20:33N 53°59' E 008°11'1010.3
2014-Sep-13 19:33N 53°57' E 007°54'59 9.7
2014-Sep-13 13:32N 53°43' E 006°18'1010.7
2014-Sep-13 12:33N 53°40' E 006°01'1111.2
2014-Sep-13 11:33N 53°37' E 005°43'1111.5
2014-Sep-13 10:33N 53°33' E 005°25'1211.7
2014-Sep-13 09:33N 53°29' E 005°06'1211.8
2014-Sep-13 08:33N 53°24' E 004°48'1211.6
2014-Sep-13 07:33N 53°15' E 004°36'1312.6
2014-Sep-13 06:33N 53°04' E 004°25'1212.2
2014-Sep-13 05:33N 52°53' E 004°16'1211.9
2014-Sep-13 04:33N 52°44' E 004°05'1111.4
2014-Sep-13 03:33N 52°35' E 003°52'2210.2
2014-Sep-13 01:23N 52°16' E 003°33'17 9.4
2014-Sep-12 23:33N 52°00' E 003°23'9 8.8
2014-Sep-12 22:32N 51°52' E 003°20'8 8.6
2014-Sep-12 21:33N 51°44' E 003°15'1010.0
2014-Sep-12 20:33N 51°35' E 003°24'1111.3
2014-Sep-12 19:33N 51°26' E 003°34'1211.6
2014-Sep-12 18:33N 51°21' E 003°51'8 7.9
2014-Sep-12 17:33N 51°23' E 004°03'9 8.6
2014-Sep-12 16:33N 51°20' E 004°16'4 4.4
2014-Sep-12 15:33N 51°17' E 004°20'1 0.9
2014-Sep-12 14:33N 51°16' E 004°21'1 0.7
2014-Sep-12 13:33N 51°16' E 004°22'0 0.0
2014-Sep-12 12:33N 51°16' E 004°22'0 0.0
2014-Sep-12 11:33N 51°16' E 004°22'0 0.0
2014-Sep-12 10:33N 51°16' E 004°22'0 0.0
2014-Sep-12 09:33N 51°16' E 004°22'0 0.0
2014-Sep-12 08:33N 51°16' E 004°22'0 0.0
2014-Sep-12 07:33N 51°16' E 004°22'0 0.0
2014-Sep-12 06:33N 51°16' E 004°22'1 1.5
2014-Sep-12 05:33N 51°17' E 004°20'0 0.0
2014-Sep-12 04:33N 51°17' E 004°20'1 1.0
2014-Sep-12 03:34N 51°17' E 004°19'6 5.6
2014-Sep-12 02:34N 51°22' E 004°13'3 2.7
2014-Sep-12 01:33N 51°23' E 004°09'4 4.4
2014-Sep-12 00:34N 51°23' E 004°02'5 4.9
2014-Sep-11 23:33N 51°28' E 004°00'7 7.0
2014-Sep-11 22:33N 51°35' E 003°58'9 7.7
2014-Sep-11 21:24N 51°40' E 004°10'2 2.6
2014-Sep-11 20:33N 51°39' E 004°13'8 7.8
2014-Sep-11 19:33N 51°41' E 004°25'4 3.8
2014-Sep-11 18:33N 51°42' E 004°31'7 7.4
2014-Sep-11 17:33N 51°47' E 004°39'0 0.0
2014-Sep-11 16:28N 51°47' E 004°39'0 0.0
2014-Sep-11 15:31N 51°47' E 004°39'0 0.0
2014-Sep-11 14:31N 51°47' E 004°39'0 0.0
2014-Sep-11 13:31N 51°47' E 004°39'0 0.0
2014-Sep-11 12:31N 51°47' E 004°39'0 0.0
2014-Sep-11 11:31N 51°47' E 004°39'0 0.0
2014-Sep-11 10:31N 51°47' E 004°39'0 0.0
2014-Sep-11 09:28N 51°47' E 004°39'0 0.0
2014-Sep-11 08:31N 51°47' E 004°39'0 0.0
2014-Sep-11 07:31N 51°47' E 004°39'0 0.0
2014-Sep-11 06:31N 51°47' E 004°39'0 0.0
2014-Sep-11 05:31N 51°47' E 004°39'0 0.0
2014-Sep-11 04:34N 51°47' E 004°39'0 0.0
2014-Sep-11 03:33N 51°47' E 004°39'0 0.0
2014-Sep-11 02:30N 51°47' E 004°38'0 0.0
2014-Sep-11 01:33N 51°47' E 004°39'0 0.0
2014-Sep-11 00:33N 51°47' E 004°39'0 0.0
2014-Sep-10 23:33N 51°47' E 004°39'0 0.0
2014-Sep-10 22:33N 51°47' E 004°39'0 0.0
2014-Sep-10 21:30N 51°47' E 004°39'0 0.0
2014-Sep-10 20:30N 51°47' E 004°39'0 0.0
2014-Sep-10 19:33N 51°47' E 004°39'0 0.0
2014-Sep-10 18:33N 51°47' E 004°39'0 0.0
2014-Sep-10 17:24N 51°47' E 004°39'0 0.0
2014-Sep-10 16:30N 51°47' E 004°39'0 0.0
2014-Sep-10 15:27N 51°47' E 004°39'0 0.0
2014-Sep-10 14:30N 51°47' E 004°39'0 0.0
2014-Sep-10 13:30N 51°47' E 004°39'0 0.0
2014-Sep-10 12:33N 51°47' E 004°39'0 0.0
2014-Sep-10 11:33N 51°47' E 004°39'0 0.0
2014-Sep-10 10:33N 51°47' E 004°39'0 0.0
2014-Sep-10 09:30N 51°47' E 004°39'0 0.0
2014-Sep-10 08:33N 51°47' E 004°39'0 0.0
2014-Sep-10 07:33N 51°47' E 004°39'0 0.0
2014-Sep-10 06:33N 51°47' E 004°39'0 0.0
2014-Sep-10 05:33N 51°47' E 004°39'0 0.0
2014-Sep-10 04:33N 51°47' E 004°39'0 0.0
2014-Sep-10 03:33N 51°47' E 004°39'0 0.0
2014-Sep-10 02:33N 51°47' E 004°39'0 0.0
2014-Sep-10 01:33N 51°47' E 004°39'0 0.0
2014-Sep-10 00:33N 51°47' E 004°39'0 0.0
2014-Sep-09 23:33N 51°47' E 004°39'0 0.0
2014-Sep-09 22:33N 51°47' E 004°39'0 0.0
2014-Sep-09 21:33N 51°47' E 004°39'0 0.0
2014-Sep-09 20:29N 51°47' E 004°39'0 0.0
2014-Sep-09 19:32N 51°47' E 004°39'0 0.0
2014-Sep-09 18:29N 51°47' E 004°39'0 0.0
2014-Sep-09 17:26N 51°47' E 004°39'0 0.0
2014-Sep-09 16:32N 51°47' E 004°39'0 0.0
2014-Sep-09 15:32N 51°47' E 004°39'0 0.0
2014-Sep-09 14:33N 51°47' E 004°39'0 0.0
2014-Sep-09 13:33N 51°47' E 004°39'0 0.0
2014-Sep-09 12:33N 51°47' E 004°39'0 0.0
2014-Sep-09 11:33N 51°47' E 004°39'3 3.3
2014-Sep-09 10:33N 51°49' E 004°34'8 8.4
2014-Sep-09 09:33N 51°51' E 004°21'7 7.3
2014-Sep-09 08:33N 51°56' E 004°12'8 8.4
2014-Sep-09 07:33N 51°60' E 004°00'9 9.3
2014-Sep-09 06:33N 52°05' E 003°47'1211.7
2014-Sep-09 05:32N 52°16' E 003°47'8210.2
2014-Sep-08 21:31N 53°30' E 004°48'1010.5
2014-Sep-08 20:33N 53°33' E 005°04'10 9.7
2014-Sep-08 19:33N 53°37' E 005°19'9 8.9
2014-Sep-08 18:33N 53°39' E 005°33'9 8.9
2014-Sep-08 17:33N 53°42' E 005°48'5310.3
2014-Sep-08 12:25N 53°57' E 007°14'1010.5
2014-Sep-08 11:27N 53°59' E 007°31'910.1
2014-Sep-08 10:33N 54°01' E 007°46'10 9.8
2014-Sep-08 09:33N 54°01' E 008°02'10 9.4
2014-Sep-08 08:28N 53°60' E 008°20'7 8.0
2014-Sep-08 07:33N 53°58' E 008°32'9 9.3
2014-Sep-08 06:33N 53°52' E 008°44'1212.0
2014-Sep-08 05:33N 53°52' E 009°04'4 3.5
2014-Sep-08 04:32N 53°54' E 009°10'90 6.9
2014-Sep-07 15:24N 54°31' E 011°29'911.1
2014-Sep-07 14:33N 54°28' E 011°45'1212.2
2014-Sep-07 13:33N 54°27' E 012°06'10 9.9
2014-Sep-07 12:33N 54°35' E 012°15'1211.0
2014-Sep-07 11:29N 54°42' E 012°31'1011.0
2014-Sep-07 10:33N 54°48' E 012°46'1110.6
2014-Sep-07 09:33N 54°52' E 013°03'1110.9
2014-Sep-07 08:33N 54°55' E 013°21'1111.0
2014-Sep-07 07:33N 54°60' E 013°38'1111.2
2014-Sep-07 06:33N 55°04' E 013°56'1110.7
2014-Sep-07 05:33N 55°10' E 014°12'  

Dump ship's entire track history